createdAt,value
2018-02-19T00:01:13.935Z,120.77
2018-02-19T00:03:44.485Z,115.23
2018-02-19T00:06:15.024Z,132.67
2018-02-19T00:08:45.491Z,135.90
2018-02-19T00:11:15.768Z,150.83
2018-02-19T00:13:46.250Z,139.87
2018-02-19T00:16:16.625Z,141.90
2018-02-19T00:18:47.310Z,154.87
2018-02-19T00:21:17.441Z,148.93
2018-02-19T00:23:48.115Z,153.63
2018-02-19T00:26:18.294Z,152.37
2018-02-19T00:28:48.048Z,147.20
2018-02-19T00:31:30.549Z,128.97
2018-02-19T00:34:13.361Z,129.77
2018-02-19T00:36:43.489Z,160.30
2018-02-19T00:39:14.016Z,147.70
2018-02-19T00:41:45.250Z,145.57
2018-02-19T00:44:15.428Z,132.90
2018-02-19T00:46:46.135Z,120.20
2018-02-19T00:49:17.451Z,118.87
2018-02-19T00:51:47.668Z,125.87
2018-02-19T00:54:18.181Z,125.00
2018-02-19T00:56:48.679Z,133.93
2018-02-19T00:59:18.485Z,159.30
2018-02-19T01:01:49.697Z,150.00
2018-02-19T01:04:20.225Z,168.17
2018-02-19T01:06:50.640Z,147.03
2018-02-19T01:09:20.923Z,139.07
2018-02-19T01:11:51.404Z,141.30
2018-02-19T01:14:21.222Z,148.97
2018-02-19T01:16:51.396Z,136.97
2018-02-19T01:19:21.878Z,136.67
2018-02-19T01:21:52.157Z,143.47
2018-02-19T01:24:22.580Z,132.53
2018-02-19T01:26:53.425Z,130.67
2018-02-19T01:29:23.831Z,112.10
2018-02-19T01:31:54.102Z,117.87
2018-02-19T01:34:24.496Z,112.67
2018-02-19T01:36:54.876Z,105.30
2018-02-19T01:39:25.320Z,107.90
2018-02-19T01:41:55.532Z,104.70
2018-02-19T01:44:25.867Z,104.07
2018-02-19T01:46:56.848Z,98.03
2018-02-19T01:49:27.259Z,97.97
2018-02-19T01:51:57.679Z,99.87
2018-02-19T01:54:28.061Z,94.00
2018-02-19T01:56:58.175Z,94.60
2018-02-19T01:59:28.551Z,95.63
2018-02-19T02:01:58.639Z,108.83
2018-02-19T02:04:28.551Z,104.63
2018-02-19T02:06:58.867Z,106.80
2018-02-19T02:09:28.772Z,102.17
2018-02-19T02:11:58.945Z,103.50
2018-02-19T02:14:29.210Z,101.00
2018-02-19T02:16:59.355Z,96.87
2018-02-19T02:19:29.697Z,106.23
2018-02-19T02:22:00.237Z,99.13
2018-02-19T02:24:31.741Z,107.50
2018-02-19T02:27:02.080Z,109.27
2018-02-19T02:29:32.842Z,108.63
2018-02-19T02:32:02.640Z,109.73
2018-02-19T02:34:32.737Z,103.23
2018-02-19T02:37:03.121Z,109.67
2018-02-19T02:39:32.975Z,112.10
2018-02-19T02:42:03.401Z,106.17
2018-02-19T02:44:33.150Z,111.13
2018-02-19T02:47:03.741Z,116.30
2018-02-19T02:49:34.231Z,138.07
2018-02-19T02:52:04.076Z,129.83
2018-02-19T02:54:34.335Z,137.70
2018-02-19T02:57:04.492Z,144.17
2018-02-19T02:59:34.753Z,144.23
2018-02-19T03:02:05.203Z,146.77
2018-02-19T03:04:35.430Z,141.70
2018-02-19T03:07:05.936Z,146.13
2018-02-19T03:09:36.279Z,161.73
2018-02-19T03:12:06.586Z,165.83
2018-02-19T03:14:36.750Z,166.70
2018-02-19T03:17:07.079Z,182.30
2018-02-19T03:19:37.642Z,178.03
2018-02-19T03:22:08.092Z,187.27
2018-02-19T03:24:38.561Z,189.73
2018-02-19T03:27:08.978Z,178.27
2018-02-19T03:29:39.414Z,182.80
2018-02-19T03:32:11.310Z,179.07
2018-02-19T03:34:41.629Z,163.43
2018-02-19T03:37:12.270Z,166.73
2018-02-19T03:39:43.194Z,165.50
2018-02-19T03:42:13.761Z,169.13
2018-02-19T03:44:44.229Z,152.83
2018-02-19T03:47:14.594Z,161.63
2018-02-19T03:49:44.984Z,158.00
2018-02-19T03:52:15.588Z,163.00
2018-02-19T03:54:46.076Z,155.27
2018-02-19T03:57:16.188Z,158.47
2018-02-19T03:59:47.387Z,152.03
2018-02-19T04:02:17.238Z,148.73
2018-02-19T04:04:47.596Z,135.70
2018-02-19T04:07:17.961Z,140.10
2018-02-19T04:09:48.308Z,118.80
2018-02-19T04:12:18.706Z,97.07
2018-02-19T04:14:48.759Z,90.43
2018-02-19T04:17:18.665Z,73.23
2018-02-19T04:19:49.217Z,77.77
2018-02-19T04:22:19.795Z,70.93
2018-02-19T04:24:49.985Z,67.17
2018-02-19T04:27:20.554Z,59.17
2018-02-19T04:29:51.044Z,62.70
2018-02-19T04:32:21.304Z,67.83
2018-02-19T04:34:51.500Z,66.83
2018-02-19T04:37:22.686Z,66.47
2018-02-19T04:39:53.198Z,69.50
2018-02-19T04:42:24.027Z,68.63
2018-02-19T04:44:56.832Z,65.13
2018-02-19T04:47:27.348Z,69.50
2018-02-19T04:49:57.710Z,66.90
2018-02-19T04:52:28.300Z,66.53
2018-02-19T04:54:58.600Z,68.03
2018-02-19T04:57:28.452Z,74.53
2018-02-19T04:59:58.734Z,65.57
2018-02-19T05:02:29.441Z,66.30
2018-02-19T05:04:59.371Z,71.93
2018-02-19T05:07:29.852Z,71.30
2018-02-19T05:09:59.671Z,67.47
2018-02-19T05:12:30.187Z,65.73
2018-02-19T05:15:00.875Z,66.43
2018-02-19T05:17:31.591Z,66.17
2018-02-19T05:20:01.716Z,67.93
2018-02-19T05:22:32.524Z,65.87
2018-02-19T05:25:02.807Z,61.33
2018-02-19T05:27:32.659Z,64.03
2018-02-19T05:30:02.372Z,65.60
2018-02-19T05:32:32.201Z,65.53
2018-02-19T05:35:02.008Z,67.27
2018-02-19T05:37:31.833Z,63.70
2018-02-19T05:40:01.603Z,63.90
2018-02-19T05:42:31.377Z,62.67
2018-02-19T05:45:01.218Z,67.80
2018-02-19T05:47:31.035Z,59.97
2018-02-19T05:50:00.765Z,62.47
2018-02-19T05:52:30.606Z,59.33
2018-02-19T05:55:00.397Z,60.73
2018-02-19T05:57:30.903Z,56.63
2018-02-19T06:00:01.291Z,56.40
2018-02-19T06:02:31.532Z,55.50
2018-02-19T06:05:01.903Z,53.47
2018-02-19T06:07:32.340Z,55.97
2018-02-19T06:10:03.470Z,51.70
2018-02-19T06:12:33.299Z,56.27
2018-02-19T06:15:03.050Z,55.10
2018-02-19T06:17:32.914Z,51.27
2018-02-19T06:20:02.691Z,48.40
2018-02-19T06:22:32.476Z,49.77
2018-02-19T06:25:02.621Z,53.53
2018-02-19T06:27:32.382Z,55.07
2018-02-19T06:30:02.223Z,65.53
2018-02-19T06:32:32.024Z,52.57
2018-02-19T06:35:01.797Z,52.30
2018-02-19T06:37:31.570Z,46.67
2018-02-19T06:40:01.432Z,49.77
2018-02-19T06:42:31.208Z,52.50
2018-02-19T06:45:00.936Z,54.23
2018-02-19T06:47:30.727Z,54.83
2018-02-19T06:50:00.538Z,52.40
2018-02-19T06:52:30.395Z,55.73
2018-02-19T06:55:00.241Z,54.37
2018-02-19T06:57:30.038Z,49.97
2018-02-19T06:59:59.836Z,55.23
2018-02-19T07:02:29.657Z,63.97
2018-02-19T07:04:59.474Z,55.93
2018-02-19T07:07:29.334Z,56.63
2018-02-19T07:09:59.128Z,53.37
2018-02-19T07:12:28.850Z,54.10
2018-02-19T07:14:58.658Z,54.53
2018-02-19T07:17:28.407Z,54.37
2018-02-19T07:19:58.327Z,55.00
2018-02-19T07:22:28.209Z,52.30
2018-02-19T07:24:58.168Z,55.03
2018-02-19T07:27:27.977Z,54.50
2018-02-19T07:29:57.762Z,57.70
2018-02-19T07:32:27.497Z,52.57
2018-02-19T07:34:57.392Z,55.70
2018-02-19T07:37:29.786Z,53.73
2018-02-19T07:39:59.571Z,54.93
2018-02-19T07:42:29.404Z,57.93
2018-02-19T07:44:59.281Z,60.37
2018-02-19T07:47:29.234Z,58.43
2018-02-19T07:49:59.150Z,60.90
2018-02-19T07:52:28.980Z,61.03
2018-02-19T07:54:58.761Z,58.83
2018-02-19T07:57:28.578Z,56.93
2018-02-19T07:59:58.414Z,54.60
2018-02-19T08:02:28.117Z,61.33
2018-02-19T08:04:57.982Z,59.67
2018-02-19T08:07:27.831Z,62.13
2018-02-19T08:09:57.571Z,58.40
2018-02-19T08:12:27.331Z,60.37
2018-02-19T08:14:57.132Z,66.17
2018-02-19T08:17:26.951Z,60.00
2018-02-19T08:19:56.732Z,68.43
2018-02-19T08:22:26.477Z,64.90
2018-02-19T08:24:56.398Z,58.37
2018-02-19T08:27:26.268Z,69.87
2018-02-19T08:29:56.075Z,58.07
2018-02-19T08:32:25.775Z,65.67
2018-02-19T08:34:55.602Z,60.93
2018-02-19T08:37:25.452Z,59.07
2018-02-19T08:39:55.272Z,59.70
2018-02-19T08:42:25.058Z,62.17
2018-02-19T08:44:54.887Z,61.17
2018-02-19T08:47:24.694Z,61.77
2018-02-19T08:49:54.557Z,62.83
2018-02-19T08:52:24.251Z,56.93
2018-02-19T08:54:54.075Z,56.07
2018-02-19T08:57:23.867Z,53.67
2018-02-19T08:59:53.725Z,56.90
2018-02-19T09:02:23.486Z,52.53
2018-02-19T09:04:53.428Z,53.13
2018-02-19T09:07:23.295Z,53.50
2018-02-19T09:09:53.071Z,52.03
2018-02-19T09:12:22.865Z,52.30
2018-02-19T09:14:52.586Z,52.20
2018-02-19T09:17:22.367Z,52.33
2018-02-19T09:19:52.198Z,56.50
2018-02-19T09:22:22.010Z,55.60
2018-02-19T09:24:51.839Z,54.87
2018-02-19T09:27:21.603Z,57.07
2018-02-19T09:29:51.358Z,54.33
2018-02-19T09:32:21.097Z,54.93
2018-02-19T09:34:50.853Z,59.30
2018-02-19T09:37:20.699Z,57.67
2018-02-19T09:39:50.533Z,59.90
2018-02-19T09:42:20.311Z,60.77
2018-02-19T09:44:50.109Z,58.60
2018-02-19T09:47:19.884Z,57.70
2018-02-19T09:49:49.730Z,60.97
2018-02-19T09:52:19.449Z,62.70
2018-02-19T09:54:49.188Z,58.43
2018-02-19T09:57:18.974Z,58.23
2018-02-19T09:59:48.881Z,60.33
2018-02-19T10:02:18.698Z,63.70
2018-02-19T10:04:48.459Z,61.10
2018-02-19T10:07:18.313Z,52.90
2018-02-19T10:09:48.169Z,52.90
2018-02-19T10:12:17.957Z,55.97
2018-02-19T10:14:47.832Z,55.87
2018-02-19T10:17:17.602Z,50.07
2018-02-19T10:19:47.434Z,52.07
2018-02-19T10:22:17.289Z,54.70
2018-02-19T10:24:47.070Z,50.67
2018-02-19T10:27:16.896Z,47.53
2018-02-19T10:29:46.670Z,45.70
2018-02-19T10:32:16.464Z,47.97
2018-02-19T10:34:46.223Z,50.17
2018-02-19T10:37:16.042Z,47.37
2018-02-19T10:39:45.890Z,46.73
2018-02-19T10:42:15.648Z,50.53
2018-02-19T10:44:45.540Z,54.67
2018-02-19T10:47:15.364Z,50.07
2018-02-19T10:49:45.168Z,48.17
2018-02-19T10:52:14.895Z,54.97
2018-02-19T10:54:44.694Z,49.23
2018-02-19T10:57:14.509Z,47.03
2018-02-19T10:59:44.271Z,48.63
2018-02-19T11:02:14.093Z,48.77
2018-02-19T11:04:43.877Z,47.90
2018-02-19T11:07:13.698Z,45.03
2018-02-19T11:12:58.237Z,41.80
2018-02-19T11:15:31.393Z,45.47
2018-02-19T11:18:01.428Z,46.03
2018-02-19T11:20:32.147Z,41.53
2018-02-19T11:23:03.926Z,35.13
2018-02-19T11:25:39.312Z,36.03
2018-02-19T11:28:10.972Z,34.87
2018-02-19T11:30:41.439Z,34.50
2018-02-19T11:33:15.738Z,33.20
2018-02-19T11:35:48.217Z,32.47
2018-02-19T11:38:24.241Z,37.33
2018-02-19T11:40:56.905Z,32.20
2018-02-19T11:43:28.821Z,32.60
2018-02-19T11:46:00.889Z,33.90
2018-02-19T11:48:33.805Z,35.23
2018-02-19T11:51:06.813Z,34.83
2018-02-19T11:53:37.036Z,34.97
2018-02-19T11:56:07.050Z,36.37
2018-02-19T11:58:39.450Z,38.07
2018-02-19T12:01:11.290Z,44.57
2018-02-19T12:03:42.370Z,37.27
2018-02-19T12:06:38.008Z,38.13
2018-02-19T12:12:03.419Z,34.43
2018-02-19T12:14:36.362Z,33.83
2018-02-19T12:17:19.489Z,35.73
2018-02-19T12:20:05.949Z,35.43
2018-02-19T12:22:43.622Z,34.63
2018-02-19T12:25:19.810Z,35.67
2018-02-19T12:30:57.594Z,34.30
2018-02-19T12:33:27.650Z,32.80
2018-02-19T12:35:57.542Z,33.47
2018-02-19T12:38:28.239Z,36.03
2018-02-19T12:41:01.029Z,36.87
2018-02-19T12:43:30.778Z,33.43
2018-02-19T12:46:00.604Z,39.27
2018-02-19T12:48:30.421Z,36.60
2018-02-19T12:51:00.153Z,38.17
2018-02-19T12:53:29.885Z,40.43
2018-02-19T12:55:59.682Z,35.77
2018-02-19T12:58:29.549Z,36.40
2018-02-19T13:00:59.417Z,31.77
2018-02-19T13:03:29.296Z,36.47
2018-02-19T13:05:59.102Z,37.33
2018-02-19T13:08:28.864Z,36.73
2018-02-19T13:10:58.619Z,26.70
2018-02-19T13:13:28.358Z,30.17
2018-02-19T13:15:58.205Z,32.73
2018-02-19T13:18:28.078Z,30.23
2018-02-19T13:20:57.911Z,28.33
2018-02-19T13:23:27.804Z,31.17
2018-02-19T13:25:57.640Z,28.53
2018-02-19T13:28:27.468Z,30.40
2018-02-19T13:30:57.227Z,28.83
2018-02-19T13:33:26.923Z,29.53
2018-02-19T13:35:56.815Z,27.07
2018-02-19T13:38:26.729Z,26.23
2018-02-19T13:40:56.552Z,26.20
2018-02-19T13:43:40.015Z,26.93
2018-02-19T13:46:09.861Z,25.40
2018-02-19T13:48:39.720Z,28.27
2018-02-19T13:51:09.520Z,26.90
2018-02-19T13:53:39.249Z,29.13
2018-02-19T13:56:09.177Z,27.90
2018-02-19T13:58:38.917Z,27.43
2018-02-19T14:01:08.807Z,31.37
2018-02-19T14:03:38.564Z,32.20
2018-02-19T14:06:08.374Z,31.53
2018-02-19T14:08:38.223Z,33.27
2018-02-19T14:11:07.997Z,28.73
2018-02-19T14:13:37.958Z,28.73
2018-02-19T14:16:07.840Z,31.67
2018-02-19T14:18:37.652Z,29.43
2018-02-19T14:21:07.495Z,29.93
2018-02-19T14:23:37.281Z,32.77
2018-02-19T14:26:07.094Z,28.87
2018-02-19T14:28:36.934Z,31.97
2018-02-19T14:31:06.696Z,32.47
2018-02-19T14:33:36.415Z,27.83
2018-02-19T14:36:06.212Z,30.80
2018-02-19T14:38:36.054Z,30.70
2018-02-19T14:41:05.863Z,33.70
2018-02-19T14:43:35.634Z,30.97
2018-02-19T14:46:05.399Z,28.27
2018-02-19T14:48:35.226Z,29.90
2018-02-19T14:51:04.941Z,32.23
2018-02-19T14:53:34.643Z,34.70
2018-02-19T14:56:04.414Z,35.43
2018-02-19T14:58:34.253Z,31.27
2018-02-19T15:01:04.054Z,33.50
2018-02-19T15:03:33.899Z,36.00
2018-02-19T15:06:03.717Z,36.43
2018-02-19T15:08:33.496Z,36.13
2018-02-19T15:11:03.203Z,37.63
2018-02-19T15:13:32.901Z,38.33
2018-02-19T15:16:02.730Z,41.43
2018-02-19T15:18:32.475Z,38.37
2018-02-19T15:21:02.349Z,39.70
2018-02-19T15:23:32.115Z,36.73
2018-02-19T15:26:01.912Z,35.60
2018-02-19T15:28:31.686Z,38.50
2018-02-19T15:31:01.398Z,34.50
2018-02-19T15:33:31.113Z,37.77
2018-02-19T15:36:00.907Z,33.13
2018-02-19T15:38:30.704Z,29.87
2018-02-19T15:41:00.450Z,25.03
2018-02-19T15:43:30.167Z,26.90
2018-02-19T15:45:59.918Z,25.53
2018-02-19T15:48:29.733Z,25.40
2018-02-19T15:50:59.437Z,25.07
2018-02-19T15:53:29.195Z,24.13
2018-02-19T15:55:58.944Z,25.47
2018-02-19T15:58:28.767Z,24.57
2018-02-19T16:00:58.587Z,23.77
2018-02-19T16:03:28.338Z,24.17
2018-02-19T16:05:58.103Z,22.13
2018-02-19T16:08:27.904Z,22.40
2018-02-19T16:10:57.610Z,21.33
2018-02-19T16:13:27.380Z,20.60
2018-02-19T16:15:58.347Z,23.07
2018-02-19T16:18:29.631Z,23.37
2018-02-19T16:21:01.863Z,22.33
2018-02-19T16:23:34.427Z,22.27
2018-02-19T16:26:06.010Z,17.90
2018-02-19T16:28:37.324Z,17.40
2018-02-19T16:31:10.841Z,16.27
2018-02-19T16:33:42.032Z,14.10
2018-02-19T16:36:12.680Z,14.47
2018-02-19T16:38:43.436Z,14.13
2018-02-19T16:41:16.950Z,13.27
2018-02-19T16:43:50.629Z,11.97
2018-02-19T16:46:22.738Z,14.03
2018-02-19T16:48:54.760Z,13.10
2018-02-19T16:51:26.945Z,15.17
2018-02-19T16:53:57.755Z,13.00
2018-02-19T16:56:28.377Z,14.50
2018-02-19T16:59:00.152Z,12.67
2018-02-19T17:01:33.250Z,13.10
2018-02-19T17:04:04.147Z,14.80
2018-02-19T17:06:37.426Z,13.47
2018-02-19T17:09:11.430Z,17.47
2018-02-19T17:11:42.505Z,15.47
2018-02-19T17:14:13.016Z,16.87
2018-02-19T17:16:43.823Z,15.30
2018-02-19T17:19:15.020Z,15.10
2018-02-19T17:21:46.800Z,12.23
2018-02-19T17:24:19.290Z,13.47
2018-02-19T17:26:50.277Z,12.27
2018-02-19T17:29:30.842Z,12.37
2018-02-19T17:32:03.740Z,14.60
2018-02-19T17:34:34.476Z,15.70
2018-02-19T17:37:06.149Z,19.20
2018-02-19T17:39:38.281Z,17.33
2018-02-19T17:42:09.155Z,17.37
2018-02-19T17:44:41.078Z,16.97
2018-02-19T17:47:12.908Z,18.53
2018-02-19T17:49:45.986Z,19.43
2018-02-19T17:52:23.663Z,20.97
2018-02-19T17:54:57.138Z,17.53
2018-02-19T17:57:28.847Z,16.93
2018-02-19T17:59:59.744Z,12.97
2018-02-19T18:02:32.080Z,19.83
2018-02-19T18:05:02.758Z,13.07
2018-02-19T18:07:35.184Z,14.33
2018-02-19T18:10:09.160Z,12.00
2018-02-19T18:12:39.916Z,12.63
2018-02-19T18:15:10.549Z,12.60
2018-02-19T18:17:49.024Z,10.90
2018-02-19T18:20:23.254Z,10.00
2018-02-19T18:22:56.581Z,12.40
2018-02-19T18:25:29.503Z,8.50
2018-02-19T18:28:00.728Z,7.70
2018-02-19T18:30:36.116Z,11.10
2018-02-19T18:33:11.908Z,10.77
2018-02-19T18:35:43.974Z,10.30
2018-02-19T18:38:15.098Z,7.27
2018-02-19T18:40:47.160Z,8.33
2018-02-19T18:43:18.745Z,8.83
2018-02-19T18:45:50.641Z,9.00
2018-02-19T18:48:22.771Z,7.47
2018-02-19T18:50:53.528Z,6.57
2018-02-19T18:53:24.805Z,6.63
2018-02-19T18:55:57.124Z,8.37
2018-02-19T18:58:30.016Z,10.57
2018-02-19T19:01:02.510Z,7.03
2018-02-19T19:03:34.384Z,6.83
2018-02-19T19:06:07.012Z,6.33
2018-02-19T19:08:49.083Z,7.10
2018-02-19T19:11:20.219Z,8.20
2018-02-19T19:13:51.106Z,8.50
2018-02-19T19:28:06.206Z,9.50
2018-02-19T19:30:36.628Z,8.07
2018-02-19T19:33:08.299Z,7.87
2018-02-19T19:35:38.832Z,8.77
2018-02-19T19:38:10.233Z,7.60
2018-02-19T19:40:41.579Z,8.03
2018-02-19T19:43:15.317Z,8.73
2018-02-19T19:45:46.888Z,9.17
2018-02-19T19:48:20.908Z,8.87
2018-02-19T19:50:51.091Z,8.10
2018-02-19T19:53:22.159Z,8.60
2018-02-19T19:55:53.945Z,9.37
2018-02-19T19:58:26.187Z,9.00
2018-02-19T20:00:56.811Z,10.17
2018-02-19T20:03:27.280Z,11.20
2018-02-19T20:05:59.068Z,9.43
2018-02-19T20:08:31.621Z,10.27
2018-02-19T20:11:08.446Z,9.90
2018-02-19T20:13:39.323Z,10.03
2018-02-19T20:16:10.158Z,10.77
2018-02-19T20:18:40.000Z,12.20
2018-02-19T20:21:09.822Z,11.23
2018-02-19T20:23:39.661Z,9.77
2018-02-19T20:26:09.520Z,10.43
2018-02-19T20:28:39.451Z,13.33
2018-02-19T20:31:09.175Z,11.30
2018-02-19T20:33:39.019Z,10.23
2018-02-19T20:36:08.854Z,10.73
2018-02-19T20:38:38.656Z,11.37
2018-02-19T20:41:08.483Z,10.97
2018-02-19T20:43:38.193Z,11.33
2018-02-19T20:46:07.925Z,11.07
2018-02-19T20:48:37.691Z,9.57
2018-02-19T20:51:07.410Z,10.40
2018-02-19T20:53:37.171Z,12.00
2018-02-19T20:56:06.989Z,11.13
2018-02-19T20:58:36.822Z,12.53
2018-02-19T21:01:06.591Z,12.90
2018-02-19T21:03:36.373Z,12.60
2018-02-19T21:06:06.166Z,12.13
2018-02-19T21:08:35.959Z,13.33
2018-02-19T21:11:05.708Z,13.97
2018-02-19T21:13:35.452Z,13.47
2018-02-19T21:16:05.145Z,12.83
2018-02-19T21:18:34.902Z,13.43
2018-02-19T21:21:04.781Z,15.13
2018-02-19T21:23:34.563Z,14.43
2018-02-19T21:26:04.381Z,14.33
2018-02-19T21:28:34.146Z,15.00
2018-02-19T21:31:03.894Z,17.13
2018-02-19T21:33:33.671Z,16.03
2018-02-19T21:36:03.657Z,15.53
2018-02-19T21:38:33.667Z,15.63
2018-02-19T21:41:03.446Z,15.90
2018-02-19T21:43:33.181Z,19.30
2018-02-19T21:46:03.043Z,16.53
2018-02-19T21:48:32.952Z,17.33
2018-02-19T21:51:02.671Z,17.90
2018-02-19T21:53:32.385Z,16.27
2018-02-19T21:56:02.423Z,16.93
2018-02-19T21:58:32.157Z,17.97
2018-02-19T22:01:02.027Z,19.13
2018-02-19T22:03:31.835Z,20.50
2018-02-19T22:06:01.650Z,19.20
2018-02-19T22:08:31.474Z,22.40
2018-02-19T22:11:01.263Z,33.80
2018-02-19T22:13:30.981Z,23.07
2018-02-19T22:16:00.691Z,23.50
2018-02-19T22:18:30.473Z,28.87
2018-02-19T22:21:00.419Z,24.80
2018-02-19T22:23:30.207Z,25.00
2018-02-19T22:26:00.014Z,28.87
2018-02-19T22:28:29.770Z,30.97
2018-02-19T22:30:59.471Z,27.83
2018-02-19T22:33:29.218Z,31.10
2018-02-19T22:35:58.963Z,31.13
2018-02-19T22:38:28.797Z,30.20
2018-02-19T22:40:58.583Z,33.90
2018-02-19T22:43:28.290Z,37.27
2018-02-19T22:45:58.161Z,32.53
2018-02-19T22:48:27.953Z,29.47
2018-02-19T22:50:57.723Z,33.87
2018-02-19T22:53:27.424Z,36.07
2018-02-19T22:55:57.176Z,34.70
2018-02-19T22:58:27.019Z,37.63
2018-02-19T23:00:56.808Z,31.93
2018-02-19T23:03:26.686Z,38.00
2018-02-19T23:05:56.462Z,36.83
2018-02-19T23:08:26.312Z,38.63
2018-02-19T23:10:56.167Z,33.53
2018-02-19T23:13:25.973Z,38.87
2018-02-19T23:15:55.756Z,36.07
2018-02-19T23:18:25.539Z,36.53
2018-02-19T23:20:55.392Z,40.13
2018-02-19T23:23:25.165Z,40.77
2018-02-19T23:25:54.967Z,41.27
2018-02-19T23:28:24.776Z,42.57
2018-02-19T23:30:54.481Z,44.93
2018-02-19T23:33:24.213Z,43.93
2018-02-19T23:35:53.994Z,47.13
2018-02-19T23:38:23.754Z,44.20
2018-02-19T23:40:53.608Z,47.70
2018-02-19T23:43:23.391Z,45.67
2018-02-19T23:45:53.194Z,43.50
2018-02-19T23:48:23.038Z,45.27
2018-02-19T23:50:52.763Z,45.73
2018-02-19T23:53:22.491Z,48.77
2018-02-19T23:55:52.386Z,42.97
2018-02-19T23:58:22.192Z,45.00
